Curtin Springs, Northern Territory

5:08 AM ACST on August 28, 2015 (GMT +0930)
Ayers Rock (Connellan) | | Change Station
CLOSE
Current Station
Airport
Location: Ayers Rock,
Elevation: 1627 ft
Nearby Weather Stations

Elev 1627 ft 25.19 °S, 130.98 °E | Updated 38 minutes ago

Mostly Cloudy
Mostly Cloudy
57 °F
Feels Like 57 °F
N
13
Wind Variable Wind from East

Today
High -- | Low -- °F
--% Chance of Precip.
Yesterday
High -- | Low -- °F
Precip. -- in
6:59 AM 6:29 PM
Waxing Gibbous, 94% visible
Pressure 30.18 in
Visibility 6.2 miles
Clouds Mostly Cloudy 5900 ft
Dew Point 32 °F
Humidity 38%
Rainfall 0.00 in
Snow Depth Not available.
UV 0 out of 12
Pollen Not available.
Air Quality Not available.
Flu Activity Not available.
METAR YAYE 271900Z AUTO 09011KT 9999 // BKN059 14/00 Q1022
Pressure 30.18 in
Visibility 6.2 miles
Clouds Mostly Cloudy 5900 ft
Dew Point 32 °F
Humidity 38%
Rainfall 0.00 in
Snow Depth Not available.
UV 0 out of 12
Pollen Not available.
Air Quality Not available.
Flu Activity Not available.
METAR YAYE 271900Z AUTO 09011KT 9999 // BKN059 14/00 Q1022

10-Day Weather Forecast

×

Almanac

Astronomy

Aug. 28, 2015 Rise Set
Actual Time
Civil Twilight
Nautical Twilight
Astronomical Twilight
Moon
Length of Visible Light
Length of Day
Tomorrow will be .
, % of the Moon is Illuminated

Today's Extremes

Country Highs Country Lows

Community

WunderPhotos

Upload Photos

1,850,195 photos uploaded!

WunderBlogs® & News

Nearby

Air Quality

  Air Quality AQ Index Pollutant
Not available.

Snow Depth

Station Depth Elevation

Earthquake Activity

City Distance Mag. Time & Date
Minimum magnitude displayed is 2.5.

Coastal Water Temperatures

Place Temperature

Stations

Nearby Weather Stations

Station Location Temp. Windchill Dew Point Humidity Wind Precip. Elev Updated Type